Time;durP1;ratioP1;P1;durP2;ratioP2;P2;SDS_P1;SDS_P2;PMS_P1;PMS_P2;Temp;Humidity;BMP_temperature;BMP_pressure;BME280_temperature;BME280_humidity;BME280_pressure;Samples;Min_cycle;Max_cycle;Signal;HPM_P1;HPM_P2
2022/04/02 00:02:16;;;;;;;0.00;0.00;;;;;;;5.87;54.79;101789.16;5024198;28;20500;-79
2022/04/02 00:04:42;;;;;;;0.10;0.10;;;;;;;5.82;54.83;101792.63;5022291;28;20062;-80
2022/04/02 00:07:08;;;;;;;0.10;0.10;;;;;;;5.78;55.07;101793.44;5026871;28;20113;-79
2022/04/02 00:09:35;;;;;;;0.10;0.10;;;;;;;5.71;54.81;101788.94;5033133;28;20129;-80
2022/04/02 00:12:02;;;;;;;0.10;0.10;;;;;;;5.70;54.85;101791.56;5031756;28;20065;-79
2022/04/02 00:14:29;;;;;;;0.10;0.10;;;;;;;5.59;55.65;101799.28;5031799;28;20076;-79
2022/04/02 00:16:55;;;;;;;0.20;0.20;;;;;;;5.59;55.82;101794.00;5031151;28;20644;-80
2022/04/02 00:19:21;;;;;;;0.10;0.10;;;;;;;5.56;55.66;101794.84;5043247;23;20048;-76
2022/04/02 00:21:47;;;;;;;0.10;0.10;;;;;;;5.50;55.66;101795.63;5016762;28;20084;-76
2022/04/02 00:24:14;;;;;;;0.10;0.10;;;;;;;5.46;56.40;101796.44;5016185;28;20026;-76
2022/04/02 00:26:40;;;;;;;0.10;0.10;;;;;;;5.47;56.16;101794.69;5012925;28;20046;-76
2022/04/02 00:29:08;;;;;;;0.10;0.10;;;;;;;5.43;56.36;101791.16;5016117;28;20072;-76
2022/04/02 00:31:34;;;;;;;0.10;0.10;;;;;;;5.43;56.61;101787.63;5011534;28;20018;-77
2022/04/02 00:34:00;;;;;;;0.10;0.10;;;;;;;5.45;56.69;101789.41;5011215;28;20037;-76
2022/04/02 00:36:27;;;;;;;0.10;0.10;;;;;;;5.51;56.20;101791.28;5014310;28;20391;-76
2022/04/02 00:38:53;;;;;;;0.10;0.10;;;;;;;5.44;56.92;101787.63;5012659;28;20027;-76
2022/04/02 00:41:19;;;;;;;0.10;0.10;;;;;;;5.49;56.68;101782.47;5009021;28;20088;-76
2022/04/02 00:43:56;;;;;;;0.10;0.10;;;;;;;5.55;56.28;101773.81;5007646;28;20050;-76
2022/04/02 00:46:23;;;;;;;0.10;0.10;;;;;;;5.57;56.56;101790.47;5009733;28;20029;-76
2022/04/02 00:48:50;;;;;;;0.10;0.10;;;;;;;5.60;56.06;101778.25;5009983;28;20037;-76
2022/04/02 00:51:18;;;;;;;0.10;0.10;;;;;;;5.61;56.32;101781.78;5014257;28;20025;-76
2022/04/02 00:53:48;;;;;;;0.10;0.10;;;;;;;5.63;56.37;101777.41;5010048;28;20022;-77
2022/04/02 00:56:15;;;;;;;0.10;0.10;;;;;;;5.62;56.25;101783.53;5011542;28;20357;-77
2022/04/02 00:58:41;;;;;;;0.10;0.10;;;;;;;5.64;56.04;101781.81;5011295;28;20120;-77
2022/04/02 01:01:07;;;;;;;0.10;0.10;;;;;;;5.58;55.94;101795.78;5011335;28;20030;-76
2022/04/02 01:03:35;;;;;;;0.10;0.10;;;;;;;5.62;56.21;101794.03;5009475;28;20022;-76
2022/04/02 01:06:01;;;;;;;0.10;0.10;;;;;;;5.63;55.94;101803.72;5009125;28;20026;-76
2022/04/02 01:08:27;;;;;;;0.10;0.10;;;;;;;5.59;55.88;101797.50;5013226;28;20116;-76
2022/04/02 01:10:58;;;;;;;1.33;0.45;;;;;;;5.65;55.35;101791.47;5010219;28;20034;-76
2022/04/02 01:13:25;;;;;;;0.10;0.10;;;;;;;5.67;55.29;101792.41;5008204;28;20022;-77
2022/04/02 01:15:51;;;;;;;0.10;0.10;;;;;;;5.69;55.27;101788.03;5013442;28;20052;-77
2022/04/02 01:18:18;;;;;;;0.10;0.10;;;;;;;5.72;55.36;101793.34;5013454;28;20035;-77
2022/04/02 01:20:44;;;;;;;0.10;0.10;;;;;;;5.74;55.09;101799.50;5010554;28;20030;-76
2022/04/02 01:23:11;;;;;;;0.10;0.10;;;;;;;5.73;54.99;101797.75;5011853;28;20117;-77
2022/04/02 01:25:37;;;;;;;0.10;0.10;;;;;;;5.76;54.83;101787.25;5011692;28;20137;-77
2022/04/02 01:28:04;;;;;;;0.10;0.10;;;;;;;5.77;54.62;101791.66;5013458;28;20080;-76
2022/04/02 01:30:31;;;;;;;0.15;0.15;;;;;;;5.78;54.41;101790.81;5010902;28;20026;-76
2022/04/02 01:32:57;;;;;;;1.65;1.55;;;;;;;5.78;54.19;101793.44;5012456;28;20132;-75
2022/04/02 01:35:24;;;;;;;0.10;0.10;;;;;;;5.77;54.23;101793.41;5011088;28;20101;-76
2022/04/02 01:37:51;;;;;;;0.10;0.10;;;;;;;5.68;53.71;101786.25;5016126;28;20372;-76
2022/04/02 01:40:18;;;;;;;0.10;0.10;;;;;;;5.69;53.88;101788.03;5015171;28;20029;-75
2022/04/02 01:42:45;;;;;;;0.28;0.28;;;;;;;5.63;53.54;101786.22;5002771;28;20120;-77
2022/04/02 01:45:13;;;;;;;0.10;0.10;;;;;;;5.56;52.75;101796.56;5015706;28;20041;-75
2022/04/02 01:47:39;;;;;;;0.10;0.10;;;;;;;5.54;52.67;101800.94;5010647;28;20065;-77
2022/04/02 01:50:06;;;;;;;0.10;0.10;;;;;;;5.49;53.31;101804.34;5009190;28;20041;-76
2022/04/02 01:52:33;;;;;;;0.10;0.10;;;;;;;5.39;51.79;101802.44;5007415;28;20026;-76
2022/04/02 01:54:59;;;;;;;0.10;0.10;;;;;;;5.35;52.28;101812.03;5010219;28;20354;-77
2022/04/02 01:57:25;;;;;;;0.10;0.10;;;;;;;5.31;52.35;101809.34;5011778;28;20238;-76
2022/04/02 01:59:51;;;;;;;0.82;0.80;;;;;;;5.25;52.71;101823.25;5007401;28;20233;-76
2022/04/02 02:02:20;;;;;;;0.10;0.10;;;;;;;5.18;52.83;101816.09;5012322;28;20052;-77
2022/04/02 02:04:46;;;;;;;0.10;0.10;;;;;;;5.08;52.43;101822.91;5009900;28;20041;-76
2022/04/02 02:07:12;;;;;;;0.13;0.13;;;;;;;5.03;52.78;101827.22;5010719;28;20033;-76
2022/04/02 02:09:38;;;;;;;0.10;0.10;;;;;;;4.96;52.69;101820.97;5007472;28;20160;-76
2022/04/02 02:12:05;;;;;;;0.10;0.10;;;;;;;4.90;53.31;101822.56;5007074;28;20492;-76
2022/04/02 02:14:31;;;;;;;0.10;0.10;;;;;;;4.84;53.20;101818.09;5009928;28;20390;-77
2022/04/02 02:16:58;;;;;;;0.10;0.10;;;;;;;4.78;53.74;101808.34;5006705;28;20129;-77
2022/04/02 02:19:24;;;;;;;0.10;0.10;;;;;;;4.73;53.75;101810.00;5007949;28;20029;-77
2022/04/02 02:21:51;;;;;;;0.10;0.10;;;;;;;4.67;54.30;101816.03;5002618;28;20034;-74
2022/04/02 02:24:17;;;;;;;0.10;0.10;;;;;;;4.64;53.92;101815.97;5006265;28;20376;-75
2022/04/02 02:26:43;;;;;;;0.20;0.20;;;;;;;4.56;54.36;101816.66;5004448;28;20102;-78
2022/04/02 02:29:09;;;;;;;0.10;0.10;;;;;;;4.54;54.46;101820.13;5006386;28;20052;-76
2022/04/02 02:31:36;;;;;;;0.10;0.10;;;;;;;4.51;54.70;101819.19;5002662;28;20026;-76
2022/04/02 02:36:49;;;;;;;0.13;0.13;;;;;;;4.44;54.63;101818.19;5005858;28;20129;-75
2022/04/02 02:39:15;;;;;;;0.10;0.10;;;;;;;4.42;54.50;101817.25;5008883;28;20108;-76
2022/04/02 02:41:42;;;;;;;0.20;0.20;;;;;;;4.42;54.56;101819.88;5007212;28;20488;-76
2022/04/02 02:44:08;;;;;;;0.10;0.10;;;;;;;4.40;54.48;101823.31;5009258;28;20029;-75
2022/04/02 02:46:34;;;;;;;0.10;0.10;;;;;;;4.35;53.77;101826.75;5007535;28;20160;-75
2022/04/02 02:49:01;;;;;;;0.57;0.57;;;;;;;4.32;53.81;101824.03;5003983;28;20034;-75
2022/04/02 02:51:27;;;;;;;1.17;1.00;;;;;;;4.38;53.99;101831.19;5002283;28;20014;-74
2022/04/02 02:53:53;;;;;;;0.10;0.10;;;;;;;4.39;54.18;101835.56;5005293;28;20058;-75
2022/04/02 02:56:19;;;;;;;0.10;0.10;;;;;;;4.41;54.38;101828.63;5004252;28;20515;-75
2022/04/02 02:58:45;;;;;;;0.10;0.10;;;;;;;4.41;54.92;101838.22;5002874;28;20034;-76
2022/04/02 03:01:11;;;;;;;0.10;0.10;;;;;;;4.39;55.00;101835.56;5008588;28;20111;-75
2022/04/02 03:03:38;;;;;;;0.10;0.10;;;;;;;4.41;55.02;101832.97;5008013;28;20057;-75
2022/04/02 03:06:04;;;;;;;0.10;0.10;;;;;;;4.38;55.54;101839.91;5010253;28;20479;-76
2022/04/02 03:08:30;;;;;;;0.10;0.10;;;;;;;4.40;55.07;101836.44;5009878;28;20480;-75
2022/04/02 03:10:58;;;;;;;0.17;0.17;;;;;;;4.40;55.66;101837.34;5000019;28;20026;-75
2022/04/02 03:13:24;;;;;;;1.08;1.08;;;;;;;4.36;56.65;101839.03;5010863;28;20014;-76
2022/04/02 03:15:51;;;;;;;0.13;0.13;;;;;;;4.41;56.43;101835.59;5011486;28;20113;-76
2022/04/02 03:18:17;;;;;;;0.10;0.10;;;;;;;4.41;56.13;101833.88;5007951;28;20711;-76
2022/04/02 03:20:43;;;;;;;0.20;0.20;;;;;;;4.42;56.62;101838.25;5009147;28;20659;-75
2022/04/02 03:23:10;;;;;;;0.10;0.10;;;;;;;4.44;56.60;101835.69;5003110;28;20105;-75
2022/04/02 03:25:36;;;;;;;0.10;0.10;;;;;;;4.44;56.42;101844.44;5010774;28;20034;-76
2022/04/02 03:28:04;;;;;;;0.10;0.10;;;;;;;4.41;56.86;101832.97;5010495;28;20041;-77
2022/04/02 03:30:31;;;;;;;0.10;0.10;;;;;;;4.43;56.44;101834.78;5003292;28;20475;-76
2022/04/02 03:32:57;;;;;;;0.15;0.15;;;;;;;4.44;56.78;101833.94;5004226;28;20033;-76
2022/04/02 03:35:25;;;;;;;0.10;0.10;;;;;;;4.41;56.54;101836.50;4986178;28;20034;-76
2022/04/02 03:37:52;;;;;;;0.10;0.10;;;;;;;4.37;57.03;101832.03;5011816;28;20037;-76
2022/04/02 03:40:24;;;;;;;0.10;0.10;;;;;;;4.43;57.22;101833.91;5011280;28;20037;-76
2022/04/02 03:42:50;;;;;;;0.43;0.43;;;;;;;4.45;57.55;101834.81;5003579;28;20030;-75
2022/04/02 03:45:18;;;;;;;0.10;0.10;;;;;;;4.48;56.70;101834.88;5014723;28;20033;-76
2022/04/02 03:47:46;;;;;;;0.13;0.13;;;;;;;4.49;56.82;101837.53;5012802;28;20036;-75
2022/04/02 03:50:13;;;;;;;0.10;0.10;;;;;;;4.48;57.47;101842.75;5011290;28;20037;-75
2022/04/02 03:52:39;;;;;;;0.10;0.10;;;;;;;4.50;57.41;101839.31;5011393;28;20061;-76
2022/04/02 03:55:08;;;;;;;0.20;0.20;;;;;;;4.48;57.54;101841.00;5009138;28;20042;-75
2022/04/02 03:57:35;;;;;;;0.20;0.20;;;;;;;4.48;56.83;101837.50;5015251;28;20133;-76
2022/04/02 04:00:03;;;;;;;0.35;0.25;;;;;;;4.49;56.75;101841.91;5011091;28;20048;-75
2022/04/02 04:02:29;;;;;;;0.10;0.10;;;;;;;4.48;56.94;101841.00;5016450;28;20033;-74
2022/04/02 04:04:56;;;;;;;0.10;0.10;;;;;;;4.54;56.14;101841.13;5014904;28;20057;-74
2022/04/02 04:07:23;;;;;;;0.10;0.10;;;;;;;4.49;56.21;101853.28;5018428;28;20156;-74
2022/04/02 04:09:49;;;;;;;1.85;1.23;;;;;;;4.46;56.24;101853.22;5018709;28;20071;-75
2022/04/02 04:12:17;;;;;;;0.10;0.10;;;;;;;4.52;55.89;101852.47;5013193;28;20660;-75
2022/04/02 04:14:44;;;;;;;0.10;0.10;;;;;;;4.48;55.73;101856.75;5012085;28;20172;-74
2022/04/02 04:17:11;;;;;;;0.17;0.17;;;;;;;4.46;55.90;101855.84;5016754;28;20070;-73
2022/04/02 04:19:37;;;;;;;0.10;0.10;;;;;;;4.49;55.55;101853.28;5017124;28;20079;-74
2022/04/02 04:22:06;;;;;;;0.10;0.10;;;;;;;4.51;56.22;101856.84;5018720;28;20040;-73
2022/04/02 04:24:32;;;;;;;0.10;0.10;;;;;;;4.49;56.16;101863.78;5019477;28;20026;-74
2022/04/02 04:26:59;;;;;;;0.10;0.10;;;;;;;4.47;56.32;101860.22;5019244;28;20541;-74
2022/04/02 04:29:25;;;;;;;0.20;0.20;;;;;;;4.48;56.58;101869.00;5016664;28;20060;-74
2022/04/02 04:31:51;;;;;;;0.10;0.10;;;;;;;4.45;56.46;101877.69;5016915;28;20025;-73
2022/04/02 04:34:17;;;;;;;0.10;0.10;;;;;;;4.46;56.74;101879.47;5019619;28;20034;-74
2022/04/02 04:36:43;;;;;;;0.10;0.10;;;;;;;4.48;56.70;101872.50;5016950;28;20030;-73
2022/04/02 04:39:10;;;;;;;0.13;0.13;;;;;;;4.53;56.54;101869.97;5016720;28;20026;-74
2022/04/02 04:41:38;;;;;;;0.10;0.10;;;;;;;4.49;56.20;101876.91;5015013;28;20030;-74
2022/04/02 04:44:05;;;;;;;0.10;0.10;;;;;;;4.50;56.13;101883.06;5018093;28;20030;-74
2022/04/02 04:46:31;;;;;;;0.10;0.10;;;;;;;4.48;56.77;101882.13;5022230;28;20075;-74
2022/04/02 04:48:57;;;;;;;0.10;0.10;;;;;;;4.50;56.67;101883.06;5010777;28;20037;-74
2022/04/02 04:51:23;;;;;;;0.10;0.10;;;;;;;4.51;56.17;101883.06;5013962;28;20026;-74
2022/04/02 04:53:50;;;;;;;0.13;0.13;;;;;;;4.48;56.45;101888.25;5017738;28;20056;-75
2022/04/02 04:56:17;;;;;;;0.10;0.10;;;;;;;4.46;56.49;101882.09;5018553;28;20112;-75
2022/04/02 04:58:43;;;;;;;0.10;0.10;;;;;;;4.42;57.04;101888.09;5013033;28;20624;-73
2022/04/02 05:01:09;;;;;;;0.10;0.10;;;;;;;4.42;57.02;101887.22;5009966;28;20034;-74
2022/04/02 05:03:35;;;;;;;0.10;0.10;;;;;;;4.44;56.57;101890.78;5012408;28;20411;-75
2022/04/02 05:06:02;;;;;;;0.10;0.10;;;;;;;4.43;57.07;101900.38;5015311;28;20030;-75
2022/04/02 05:08:32;;;;;;;0.10;0.10;;;;;;;4.42;57.14;101903.84;5011225;28;20057;-73
2022/04/02 05:10:59;;;;;;;0.17;0.17;;;;;;;4.38;57.17;101915.13;5018164;28;20068;-73
2022/04/02 05:13:25;;;;;;;0.20;0.20;;;;;;;4.36;56.74;101912.50;5016579;28;20459;-74
2022/04/02 05:15:52;;;;;;;0.10;0.10;;;;;;;4.31;57.33;101915.84;5016608;28;20033;-74
2022/04/02 05:18:18;;;;;;;0.10;0.10;;;;;;;4.36;57.00;101919.47;5017648;28;20441;-73
2022/04/02 05:20:44;;;;;;;0.20;0.20;;;;;;;4.38;56.68;101915.13;5011086;28;20070;-72
2022/04/02 05:23:11;;;;;;;0.10;0.10;;;;;;;4.35;57.05;101917.72;5019753;28;20030;-73
2022/04/02 05:25:38;;;;;;;0.13;0.13;;;;;;;4.33;57.66;101919.41;4999671;28;20104;-74
2022/04/02 05:28:05;;;;;;;0.10;0.10;;;;;;;4.36;57.64;101920.34;5013010;28;20026;-72
2022/04/02 05:30:32;;;;;;;0.10;0.10;;;;;;;4.37;57.79;101915.97;4994119;28;20396;-74
2022/04/02 05:32:58;;;;;;;0.30;0.30;;;;;;;4.35;58.44;101922.97;5016656;28;20033;-74
2022/04/02 05:35:25;;;;;;;0.10;0.10;;;;;;;4.40;57.65;101929.19;5023193;28;20513;-73
2022/04/02 05:37:51;;;;;;;0.10;0.10;;;;;;;4.42;57.63;101931.84;5015970;28;20081;-74
2022/04/02 05:40:17;;;;;;;0.10;0.10;;;;;;;4.44;57.61;101928.41;5013917;28;20112;-74
2022/04/02 05:42:45;;;;;;;0.10;0.10;;;;;;;4.48;57.82;101926.75;5009185;28;20044;-73
2022/04/02 05:45:12;;;;;;;0.10;0.10;;;;;;;4.47;57.61;101936.31;5013232;28;20515;-73
2022/04/02 05:47:47;;;;;;;0.20;0.20;;;;;;;4.57;57.13;101929.56;5012267;28;20061;-74
2022/04/02 05:50:16;;;;;;;0.10;0.10;;;;;;;4.54;57.61;101937.38;5020273;28;20052;-74
2022/04/02 05:52:42;;;;;;;0.10;0.10;;;;;;;4.56;57.36;101937.41;5023885;28;20061;-74
2022/04/02 05:55:10;;;;;;;0.10;0.10;;;;;;;4.62;57.35;101945.41;5021143;28;20040;-74
2022/04/02 05:57:37;;;;;;;0.10;0.10;;;;;;;4.67;57.60;101951.66;5018179;28;20451;-74
2022/04/02 06:00:06;;;;;;;0.10;0.10;;;;;;;4.70;57.58;101951.72;5006673;28;20026;-72
2022/04/02 06:02:33;;;;;;;0.10;0.10;;;;;;;4.76;57.14;101950.97;5008845;28;20029;-74
2022/04/02 06:05:01;;;;;;;0.10;0.10;;;;;;;4.82;57.24;101962.50;5010277;28;20091;-72
2022/04/02 06:07:27;;;;;;;0.10;0.10;;;;;;;4.84;57.25;101960.78;5017868;28;20036;-73
2022/04/02 06:09:53;;;;;;;0.10;0.10;;;;;;;4.90;56.99;101970.53;5016845;28;20029;-74
2022/04/02 06:12:19;;;;;;;0.10;0.10;;;;;;;4.93;56.56;101969.72;5011654;28;20049;-74
2022/04/02 06:14:45;;;;;;;0.10;0.10;;;;;;;4.93;56.52;101974.97;5011212;28;20026;-73
2022/04/02 06:17:11;;;;;;;0.10;0.10;;;;;;;4.94;56.62;101976.75;5010221;28;20053;-73
2022/04/02 06:19:37;;;;;;;0.10;0.10;;;;;;;4.93;56.47;101974.97;5048231;22;20248;-87
2022/04/02 06:22:06;;;;;;;0.10;0.10;;;;;;;4.87;56.74;101986.22;5026071;28;20092;-86
2022/04/02 06:24:34;;;;;;;0.10;0.10;;;;;;;4.86;56.67;101985.34;5026546;28;20035;-86
2022/04/02 06:27:00;;;;;;;0.10;0.10;;;;;;;4.81;56.93;101981.72;5019896;28;20486;-86
2022/04/02 06:29:27;;;;;;;0.10;0.10;;;;;;;4.79;56.92;101978.19;5018225;28;20136;-89
2022/04/02 06:31:53;;;;;;;0.10;0.10;;;;;;;4.80;56.45;101993.09;4996607;28;20030;-85
2022/04/02 06:34:19;;;;;;;0.10;0.10;;;;;;;4.76;56.53;101993.88;5002442;28;20057;-84
2022/04/02 06:36:45;;;;;;;0.63;0.63;;;;;;;4.78;56.67;101997.41;5004098;28;20080;-84
2022/04/02 06:39:12;;;;;;;0.10;0.10;;;;;;;4.75;56.80;102001.69;5003540;28;20061;-84
2022/04/02 06:41:39;;;;;;;0.13;0.13;;;;;;;4.77;56.68;101993.03;4994299;28;20022;-85
2022/04/02 06:44:08;;;;;;;0.10;0.10;;;;;;;4.81;57.08;102008.00;5004568;28;20042;-85
2022/04/02 06:46:34;;;;;;;0.10;0.10;;;;;;;4.82;57.01;102014.13;5005733;28;20030;-87
2022/04/02 06:49:01;;;;;;;0.10;0.10;;;;;;;4.82;56.92;102007.16;5003401;28;20113;-86
2022/04/02 06:51:27;;;;;;;0.10;0.10;;;;;;;4.82;56.43;102011.50;5025639;28;20024;-89
2022/04/02 06:53:53;;;;;;;0.10;0.10;;;;;;;4.89;56.59;102015.16;5015161;28;20049;-86
2022/04/02 06:56:19;;;;;;;1.27;1.27;;;;;;;4.96;56.54;102023.22;5018902;28;20064;-83
2022/04/02 06:58:45;;;;;;;0.10;0.10;;;;;;;4.98;55.84;102017.97;5002784;28;20117;-83
2022/04/02 07:01:11;;;;;;;0.10;0.10;;;;;;;5.02;56.06;102017.19;5004042;28;20118;-85
2022/04/02 07:03:37;;;;;;;0.10;0.10;;;;;;;5.09;55.61;102021.72;4998139;28;20034;-85
2022/04/02 07:06:04;;;;;;;0.10;0.10;;;;;;;5.09;55.23;102023.47;5002509;28;20041;-85
2022/04/02 07:08:31;;;;;;;0.10;0.10;;;;;;;5.18;55.33;102029.81;5001555;28;20041;-86
2022/04/02 07:10:58;;;;;;;0.82;0.82;;;;;;;5.20;55.15;102032.47;5005078;28;20031;-85
2022/04/02 07:13:24;;;;;;;0.10;0.10;;;;;;;5.27;55.54;102029.13;5005413;28;20057;-86
2022/04/02 07:15:50;;;;;;;0.10;0.10;;;;;;;5.31;54.13;102030.09;5002864;28;20498;-86
2022/04/02 07:18:17;;;;;;;0.10;0.10;;;;;;;5.34;54.51;102031.00;4997591;28;20033;-83
2022/04/02 07:20:44;;;;;;;0.10;0.10;;;;;;;5.43;54.72;102030.34;4999054;28;20062;-83
2022/04/02 07:23:10;;;;;;;0.10;0.10;;;;;;;5.46;54.84;102038.28;4995623;28;20089;-87
2022/04/02 07:25:39;;;;;;;0.10;0.10;;;;;;;5.54;54.21;102041.03;5002443;28;20092;-85
2022/04/02 07:28:07;;;;;;;0.10;0.10;;;;;;;5.60;53.92;102035.91;5004361;28;20058;-85
2022/04/02 07:30:35;;;;;;;0.10;0.10;;;;;;;5.66;53.71;102041.28;5003079;28;20029;-79
2022/04/02 07:33:02;;;;;;;0.10;0.10;;;;;;;5.74;53.79;102046.69;4995418;28;20030;-85
2022/04/02 07:35:52;;;;;;;0.10;0.10;;;;;;;5.84;53.27;102042.50;5001305;28;20027;-86
2022/04/02 07:38:22;;;;;;;0.10;0.10;;;;;;;5.88;53.52;102059.22;5009297;28;20035;-85
2022/04/02 07:41:01;;;;;;;0.10;0.10;;;;;;;5.88;52.13;102051.34;5003379;28;20030;-85
2022/04/02 07:46:06;;;;;;;0.10;0.10;;;;;;;6.01;51.83;102063.91;5111405;27;20401;-79
2022/04/02 07:48:37;;;;;;;0.10;0.10;;;;;;;6.17;51.66;102064.16;5111738;28;20561;-79
2022/04/02 07:51:12;;;;;;;0.10;0.10;;;;;;;6.22;51.97;102071.31;5111202;28;20043;-79
2022/04/02 07:53:44;;;;;;;0.10;0.10;;;;;;;6.25;51.33;102071.34;5100041;28;20051;-79
2022/04/02 07:56:18;;;;;;;0.10;0.10;;;;;;;6.36;52.23;102068.91;5089193;28;20498;-79
2022/04/02 07:58:52;;;;;;;0.80;0.80;;;;;;;6.42;50.13;102069.00;5099928;28;20555;-79
2022/04/02 08:01:19;;;;;;;0.10;0.10;;;;;;;6.56;50.42;102069.22;5102501;28;20027;-79
2022/04/02 08:03:47;;;;;;;0.47;0.47;;;;;;;6.63;49.76;102073.75;5112004;28;20030;-79
2022/04/02 08:06:14;;;;;;;0.10;0.10;;;;;;;6.74;49.25;102076.56;5112400;27;20028;-77
2022/04/02 08:08:42;;;;;;;0.10;0.10;;;;;;;6.89;49.54;102064.47;5110396;28;20088;-78
2022/04/02 08:11:10;;;;;;;0.10;0.10;;;;;;;6.90;49.07;102063.59;5100028;28;20021;-78
2022/04/02 08:13:38;;;;;;;0.10;0.10;;;;;;;7.06;48.72;102073.50;5095728;28;20032;-77
2022/04/02 08:16:04;;;;;;;0.10;0.10;;;;;;;7.02;47.42;102076.97;5092450;28;20035;-77
2022/04/02 08:18:31;;;;;;;0.10;0.10;;;;;;;7.16;48.00;102079.78;5099802;28;20116;-78
2022/04/02 08:20:57;;;;;;;0.10;0.10;;;;;;;7.23;46.60;102078.16;5099408;28;20031;-78
2022/04/02 08:23:24;;;;;;;0.10;0.10;;;;;;;7.34;47.18;102066.00;5100661;28;20023;-79
2022/04/02 08:26:20;;;;;;;0.10;0.10;;;;;;;7.47;47.31;102066.16;5101261;28;20042;-79
2022/04/02 08:29:13;;;;;;;0.10;0.10;;;;;;;7.54;46.12;102075.88;5097095;28;20174;-79
2022/04/02 08:34:41;;;;;;;0.10;0.10;;;;;;;7.80;47.47;102075.31;5103430;27;20802;-79
2022/04/02 08:37:28;;;;;;;0.20;0.20;;;;;;;7.85;46.43;102076.25;5085527;28;20044;-79
2022/04/02 08:43:23;;;;;;;0.10;0.10;;;;;;;8.06;46.18;102081.78;5099778;27;20393;-79
2022/04/02 08:46:10;;;;;;;0.15;0.15;;;;;;;8.21;45.15;102082.78;5082145;28;20103;-79
2022/04/02 08:48:42;;;;;;;0.00;0.00;;;;;;;8.38;43.96;102083.81;5084455;28;20307;-79
2022/04/02 08:51:28;;;;;;;0.10;0.10;;;;;;;8.65;43.28;102087.63;5077312;28;20032;-80
2022/04/02 08:57:20;;;;;;;0.10;0.10;;;;;;;8.73;41.52;102092.97;5051184;27;20940;-80
2022/04/02 09:00:01;;;;;;;0.47;0.47;;;;;;;8.74;40.58;102097.38;5032198;28;20034;-80
2022/04/02 09:02:58;;;;;;;0.10;0.10;;;;;;;8.90;42.68;102098.38;5030759;28;20029;-80
2022/04/02 09:06:04;;;;;;;0.20;0.20;;;;;;;8.98;42.91;102099.31;5035860;28;20425;-81
2022/04/02 09:17:42;;;;;;;0.10;0.10;;;;;;;9.51;40.97;102094.34;5073762;27;20595;-80
2022/04/02 09:23:09;;;;;;;0.10;0.10;;;;;;;9.67;41.49;102104.09;5123377;27;20916;-79
2022/04/02 09:36:45;;;;;;;0.20;0.20;;;;;;;10.08;37.67;102112.16;5101064;27;1256569;-80
2022/04/02 09:42:29;;;;;;;0.10;0.10;;;;;;;10.33;39.04;102108.69;5109843;27;20370;-79
2022/04/02 09:45:16;;;;;;;0.00;0.00;;;;;;;10.64;38.19;102106.09;5091955;28;20048;-80
2022/04/02 09:48:01;;;;;;;0.13;0.13;;;;;;;10.85;37.75;102106.94;5086327;28;20047;-80
2022/04/02 09:50:29;;;;;;;0.10;0.10;;;;;;;11.00;37.99;102099.00;5089345;28;20028;-79
2022/04/02 09:53:14;;;;;;;0.20;0.20;;;;;;;11.23;36.61;102106.00;5080535;28;20406;-81
2022/04/02 09:55:50;;;;;;;0.10;0.10;;;;;;;11.40;37.34;102107.72;5080330;28;20115;-81
2022/04/02 10:01:34;;;;;;;0.00;0.00;;;;;;;11.63;34.99;102108.53;5023449;28;20414;-80
2022/04/02 10:06:46;;;;;;;0.10;0.10;;;;;;;11.44;36.73;102120.09;5007352;28;20410;-80
2022/04/02 10:09:20;;;;;;;0.08;0.08;;;;;;;11.37;36.95;102115.72;4995549;28;20373;-80
2022/04/02 10:14:23;;;;;;;0.10;0.10;;;;;;;10.70;36.14;102120.22;5082031;27;1223633;-79
2022/04/02 10:16:52;;;;;;;0.00;0.00;;;;;;;10.54;37.54;102117.56;5112494;28;20098;-80
2022/04/02 10:19:25;;;;;;;0.10;0.10;;;;;;;10.46;38.27;102120.19;5113052;28;20031;-79
2022/04/02 10:22:01;;;;;;;0.68;0.68;;;;;;;10.41;37.27;102123.75;5113245;28;20028;-80
2022/04/02 10:24:33;;;;;;;0.10;0.10;;;;;;;10.36;37.90;102116.66;5114422;28;20049;-80
2022/04/02 10:27:04;;;;;;;0.10;0.10;;;;;;;10.33;37.54;102123.69;5104791;28;20439;-79
2022/04/02 10:30:11;;;;;;;0.10;0.10;;;;;;;10.38;37.57;102113.13;5083180;28;20100;-79
2022/04/02 10:32:52;;;;;;;0.10;0.10;;;;;;;10.35;38.09;102109.59;5091623;28;20032;-79
2022/04/02 10:35:22;;;;;;;0.10;0.10;;;;;;;10.31;37.91;102114.88;5092313;28;20080;-79
2022/04/02 10:38:05;;;;;;;0.10;0.10;;;;;;;10.46;38.14;102121.97;5089684;28;20020;-79
2022/04/02 10:40:36;;;;;;;0.10;0.10;;;;;;;10.49;36.39;102117.56;5082828;28;20052;-79
2022/04/02 10:43:06;;;;;;;0.00;0.00;;;;;;;10.68;37.43;102118.44;5073497;28;20053;-79
2022/04/02 10:45:39;;;;;;;0.10;0.10;;;;;;;10.90;37.89;102113.13;5083407;28;20102;-78
2022/04/02 10:48:10;;;;;;;0.10;0.10;;;;;;;11.08;38.12;102111.34;5086707;28;20020;-78
2022/04/02 10:50:37;;;;;;;0.10;0.10;;;;;;;11.04;36.95;102114.88;5092652;28;20035;-78
2022/04/02 10:53:04;;;;;;;0.00;0.00;;;;;;;11.09;36.31;102107.81;5087298;28;20031;-80
2022/04/02 10:55:31;;;;;;;0.00;0.00;;;;;;;11.09;35.55;102108.72;5088856;28;20052;-79
2022/04/02 10:57:59;;;;;;;0.00;0.00;;;;;;;11.11;36.63;102116.66;5093277;28;20107;-79
2022/04/02 11:00:27;;;;;;;0.10;0.10;;;;;;;11.08;37.34;102111.34;5091812;28;20028;-79
2022/04/02 11:03:03;;;;;;;0.10;0.10;;;;;;;11.12;37.31;102115.78;5090919;28;20024;-79
2022/04/02 11:05:35;;;;;;;0.10;0.10;;;;;;;11.01;36.55;102121.09;5085078;28;20491;-80
2022/04/02 11:08:05;;;;;;;0.10;0.10;;;;;;;10.89;35.47;102118.44;5085602;28;20045;-80
2022/04/02 11:10:34;;;;;;;0.10;0.10;;;;;;;10.73;36.25;102120.22;5091529;28;20021;-80
2022/04/02 11:13:02;;;;;;;0.03;0.03;;;;;;;10.53;35.93;102113.16;5087594;28;20367;-80
2022/04/02 11:15:29;;;;;;;0.65;0.65;;;;;;;10.62;36.59;102123.75;5090658;28;20482;-79
2022/04/02 11:17:58;;;;;;;0.10;0.10;;;;;;;10.61;36.66;102129.94;5090074;28;20032;-79
2022/04/02 11:20:29;;;;;;;0.10;0.10;;;;;;;10.59;37.11;102131.72;5091531;28;20650;-80
2022/04/02 11:28:14;;;;;;;0.10;0.10;;;;;;;11.25;35.79;102125.47;5112567;27;20140;-79
2022/04/02 11:30:44;;;;;;;0.10;0.10;;;;;;;11.22;36.59;102124.59;5123712;28;20032;-79
2022/04/02 11:33:17;;;;;;;0.00;0.00;;;;;;;11.17;36.43;102121.94;5118320;28;20026;-80
2022/04/02 11:41:23;;;;;;;0.00;0.00;;;;;;;11.10;35.12;102120.19;5107075;27;1196501;-79
2022/04/02 11:44:09;;;;;;;0.10;0.10;;;;;;;11.18;35.53;102121.06;5112372;28;20033;-79
2022/04/02 11:49:39;;;;;;;0.10;0.10;;;;;;;11.16;36.52;102133.44;5049600;28;20408;-79
2022/04/02 11:52:11;;;;;;;0.10;0.10;;;;;;;11.06;36.91;102123.72;5038048;28;20121;-79
2022/04/02 11:57:29;;;;;;;0.10;0.10;;;;;;;10.81;36.96;102129.06;5091140;27;20416;-80
2022/04/02 11:59:58;;;;;;;0.10;0.10;;;;;;;10.76;36.42;102133.47;5092389;28;20040;-79
2022/04/02 12:02:42;;;;;;;0.10;0.10;;;;;;;10.89;36.74;102123.75;5090784;28;20021;-79
2022/04/02 12:05:10;;;;;;;0.10;0.10;;;;;;;11.00;34.99;102121.97;5086429;28;20024;-79
2022/04/02 12:07:52;;;;;;;0.10;0.10;;;;;;;11.30;35.06;102123.69;5088894;28;20081;-79
2022/04/02 12:10:24;;;;;;;0.20;0.20;;;;;;;11.43;35.52;102124.53;5095673;28;20486;-79
2022/04/02 12:12:52;;;;;;;0.10;0.10;;;;;;;11.53;33.19;102136.00;5087372;28;20024;-78
2022/04/02 12:15:19;;;;;;;2.55;1.55;;;;;;;11.50;34.74;102125.38;5084091;28;20016;-79
2022/04/02 12:17:52;;;;;;;0.10;0.10;;;;;;;11.44;32.71;102130.72;5086227;28;20507;-80
2022/04/02 12:20:27;;;;;;;0.10;0.10;;;;;;;11.28;31.65;102125.47;5083148;28;20013;-79
2022/04/02 12:23:18;;;;;;;0.00;0.00;;;;;;;11.23;33.78;102131.69;5082597;28;20020;-79
2022/04/02 12:26:00;;;;;;;0.10;0.10;;;;;;;11.21;34.27;102117.53;5101019;22;20044;-81
2022/04/02 12:28:27;;;;;;;;;;;;;;;11.52;33.12;102117.44;5070934;28;20037;-81
2022/04/02 12:31:02;;;;;;;0.10;0.10;;;;;;;11.52;33.25;102126.28;5061426;28;19908;-81
2022/04/02 12:33:29;;;;;;;0.10;0.10;;;;;;;11.71;32.41;102115.59;5072559;28;20031;-81
2022/04/02 12:36:06;;;;;;;0.20;0.20;;;;;;;11.85;31.65;102115.50;5071836;28;20404;-81
2022/04/02 12:38:34;;;;;;;0.00;0.00;;;;;;;12.08;33.22;102110.13;5072658;28;20040;-81
2022/04/02 12:41:04;;;;;;;0.10;0.10;;;;;;;12.18;30.48;102110.97;5071657;28;20100;-81
2022/04/02 12:43:34;;;;;;;0.05;0.05;;;;;;;12.34;31.31;102114.41;5074035;28;20538;-81
2022/04/02 12:46:01;;;;;;;0.10;0.10;;;;;;;12.24;29.56;102109.13;5072674;28;20029;-80
2022/04/02 12:48:42;;;;;;;0.00;0.00;;;;;;;12.42;32.06;102104.56;5074040;28;20035;-81